Terminal Aerodrome Forecast
Issued by NWS

Home | Current Version | Previous Version | Text Only | Print | Product List | Glossary On
Versions: 1 2 3 4 5 6 7 8 9 10 11 12 13 14 15 16 17 18 19 20 21 22 23 24 25 26 27
506
FTUS41 KOKX 261726
TAFSWF
TAF
KSWF 261726Z 2618/2724 26009KT P6SM BKN060
     FM270000 26005KT P6SM SCT070
     FM271200 VRB03KT P6SM BKN070
     FM271400 26004KT P6SM SCT100
     FM271600 26007KT P6SM SCT150
     FM271800 25009G16KT P6SM SCT090
      AMD NOT SKED=

USA.gov is the U.S. government's official web portal to all federal, state and local government web resources and services.